Time;durP1;ratioP1;P1;durP2;ratioP2;P2;SDS_P1;SDS_P2;PMS_P1;PMS_P2;Temp;Humidity;BMP_temperature;BMP_pressure;BME280_temperature;BME280_humidity;BME280_pressure;Samples;Min_cycle;Max_cycle;Signal;HPM_P1;HPM_P2
2022/10/08 00:01:27;;;;;;;1.60;1.10;;;;;;;15.13;100.00;101102.09;5104238;28;20478;-63
2022/10/08 00:03:54;;;;;;;3.55;1.00;;;;;;;15.12;100.00;101100.47;5123481;28;20024;-66
2022/10/08 00:06:28;;;;;;;4.60;1.30;;;;;;;15.11;100.00;101094.41;5121602;28;20028;-66
2022/10/08 00:09:01;;;;;;;3.90;0.80;;;;;;;15.15;100.00;101095.69;5089431;28;20042;-65
2022/10/08 00:11:29;;;;;;;3.60;1.15;;;;;;;15.14;100.00;101087.97;5123572;28;20308;-64
2022/10/08 00:13:55;;;;;;;5.28;0.80;;;;;;;15.13;100.00;101091.59;5101863;28;20088;-65
2022/10/08 00:16:32;;;;;;;1.65;0.75;;;;;;;15.13;100.00;101091.59;5124607;28;20034;-66
2022/10/08 00:19:01;;;;;;;7.35;1.23;;;;;;;15.13;100.00;101086.34;5126192;28;20556;-68
2022/10/08 00:21:30;;;;;;;2.08;1.00;;;;;;;15.11;100.00;101088.31;5123167;28;20507;-66
2022/10/08 00:23:57;;;;;;;6.75;1.17;;;;;;;15.08;100.00;101089.47;5105991;28;20057;-67
2022/10/08 00:26:25;;;;;;;3.72;1.20;;;;;;;15.04;100.00;101082.06;5124687;28;20110;-66
2022/10/08 00:28:53;;;;;;;7.10;1.10;;;;;;;15.04;100.00;101082.88;5121954;28;20015;-65
2022/10/08 00:31:25;;;;;;;3.15;1.30;;;;;;;15.08;100.00;101083.41;5124273;28;20035;-64
2022/10/08 00:33:53;;;;;;;3.80;1.00;;;;;;;15.07;100.00;101077.31;5102900;28;20598;-64
2022/10/08 00:36:20;;;;;;;8.27;1.65;;;;;;;15.11;100.00;101073.41;5123686;28;20035;-69
2022/10/08 00:38:46;;;;;;;5.35;0.70;;;;;;;15.15;100.00;101079.94;5119131;28;20118;-66
2022/10/08 00:41:20;;;;;;;2.88;0.90;;;;;;;15.12;100.00;101063.72;5125107;28;20145;-66
2022/10/08 00:43:49;;;;;;;2.88;0.93;;;;;;;15.10;100.00;101068.31;5123138;28;20027;-68
2022/10/08 00:46:21;;;;;;;3.20;1.00;;;;;;;15.02;100.00;101066.47;5124303;28;20160;-68
2022/10/08 00:48:49;;;;;;;4.88;1.23;;;;;;;14.99;100.00;101065.97;5102740;28;20062;-66
2022/10/08 00:51:15;;;;;;;4.95;1.13;;;;;;;14.95;100.00;101060.22;5118188;28;20059;-66
2022/10/08 00:53:42;;;;;;;2.53;1.15;;;;;;;14.88;100.00;101060.03;5121128;28;20067;-69
2022/10/08 00:56:08;;;;;;;3.03;1.08;;;;;;;14.87;100.00;101061.00;5106289;28;20038;-69
2022/10/08 00:58:34;;;;;;;3.90;1.23;;;;;;;14.87;100.00;101060.19;5119211;28;20580;-67
2022/10/08 01:01:00;;;;;;;3.55;1.20;;;;;;;14.89;100.00;101061.66;5122705;28;20067;-70
2022/10/08 01:03:26;;;;;;;6.15;1.60;;;;;;;14.91;100.00;101056.25;5121898;28;20038;-66
2022/10/08 01:06:03;;;;;;;4.40;1.40;;;;;;;14.82;100.00;101052.78;5109081;28;20028;-69
2022/10/08 01:08:54;;;;;;;5.38;1.75;;;;;;;14.78;100.00;101051.44;5104036;28;20161;-67
2022/10/08 01:11:45;;;;;;;4.53;1.10;;;;;;;14.73;100.00;101043.22;5090734;28;20038;-68
2022/10/08 01:14:13;;;;;;;3.25;1.23;;;;;;;14.72;100.00;101051.25;5097927;28;20039;-66
2022/10/08 01:17:02;;;;;;;5.40;1.63;;;;;;;14.73;100.00;101043.22;5108725;28;20032;-70
2022/10/08 01:19:54;;;;;;;4.68;1.75;;;;;;;14.64;100.00;101044.19;5109309;28;20032;-69
2022/10/08 01:22:45;;;;;;;3.20;1.63;;;;;;;14.53;100.00;101036.59;5106782;28;20046;-67
2022/10/08 01:25:33;;;;;;;5.18;1.90;;;;;;;14.52;100.00;101037.56;5106754;28;20443;-67
2022/10/08 01:28:04;;;;;;;2.67;1.58;;;;;;;14.48;100.00;101033.63;5088014;28;20093;-65
2022/10/08 01:30:34;;;;;;;7.90;1.60;;;;;;;14.41;100.00;101027.31;5106994;28;20032;-65
2022/10/08 01:33:11;;;;;;;3.00;1.52;;;;;;;14.37;100.00;101028.59;5109613;28;20036;-66
2022/10/08 01:35:43;;;;;;;6.95;1.48;;;;;;;14.33;100.00;101024.66;5091003;28;20059;-67
2022/10/08 01:38:13;;;;;;;2.72;1.80;;;;;;;14.37;100.00;101028.59;5085033;28;20028;-67
2022/10/08 01:40:42;;;;;;;3.67;1.20;;;;;;;14.38;100.00;101022.38;5105580;28;20106;-66
2022/10/08 01:43:12;;;;;;;5.07;1.33;;;;;;;14.41;100.00;101035.19;5109102;28;20039;-68
2022/10/08 01:45:44;;;;;;;12.65;1.30;;;;;;;14.42;100.00;101023.75;5107574;28;20140;-64
2022/10/08 01:48:19;;;;;;;4.32;0.98;;;;;;;14.40;100.00;101025.66;5089514;28;20030;-63
2022/10/08 01:50:54;;;;;;;5.30;1.65;;;;;;;14.45;100.00;101026.06;5095105;28;20027;-65
2022/10/08 01:53:25;;;;;;;8.23;1.48;;;;;;;14.48;100.00;101023.94;5107535;28;20116;-68
2022/10/08 01:55:54;;;;;;;4.75;1.40;;;;;;;14.43;100.00;101020.97;5107036;28;20282;-66
2022/10/08 01:58:33;;;;;;;6.38;1.45;;;;;;;14.36;100.00;101017.28;5109326;28;20045;-67
2022/10/08 02:01:07;;;;;;;5.97;1.40;;;;;;;14.29;100.00;101014.47;5104409;28;20367;-69
2022/10/08 02:03:33;;;;;;;6.03;1.63;;;;;;;14.31;100.00;101011.69;5110494;28;20040;-66
2022/10/08 02:06:03;;;;;;;2.53;1.48;;;;;;;14.27;100.00;101013.81;5109332;28;20027;-69
2022/10/08 02:08:28;;;;;;;3.17;1.10;;;;;;;14.29;100.00;101008.41;5087678;28;20385;-66
2022/10/08 02:10:54;;;;;;;4.85;1.90;;;;;;;14.28;100.00;101010.19;5110288;28;20027;-65
2022/10/08 02:13:20;;;;;;;4.90;1.88;;;;;;;14.25;100.00;101007.88;5108532;28;20412;-68
2022/10/08 02:15:57;;;;;;;5.10;1.70;;;;;;;14.15;100.00;101007.19;5105051;28;20027;-68
2022/10/08 02:18:38;;;;;;;5.10;1.88;;;;;;;14.11;100.00;101000.63;5094015;28;20221;-67
2022/10/08 02:21:10;;;;;;;3.83;1.50;;;;;;;14.12;100.00;101004.88;5107487;28;20096;-66
2022/10/08 02:23:52;;;;;;;5.03;2.13;;;;;;;14.10;100.00;101006.84;5107590;28;20059;-66
2022/10/08 02:26:23;;;;;;;7.60;2.88;;;;;;;14.10;100.00;101003.41;5108461;28;20050;-67
2022/10/08 02:29:08;;;;;;;4.20;1.83;;;;;;;14.07;100.00;100999.28;5106404;28;20039;-64
2022/10/08 02:31:58;;;;;;;5.78;2.55;;;;;;;14.02;100.00;101001.53;5101605;28;20031;-68
2022/10/08 02:34:27;;;;;;;4.40;1.58;;;;;;;14.03;100.00;100992.72;5109641;28;20031;-66
2022/10/08 02:36:57;;;;;;;9.00;1.95;;;;;;;14.04;100.00;100999.59;5105952;28;20023;-66
2022/10/08 02:39:27;;;;;;;4.80;1.75;;;;;;;14.02;100.00;100996.31;5101962;28;20093;-66
2022/10/08 02:41:58;;;;;;;5.00;1.50;;;;;;;13.99;100.00;100998.41;5089208;28;20032;-67
2022/10/08 02:44:41;;;;;;;4.57;1.60;;;;;;;13.94;100.00;101001.47;5109274;28;20034;-68
2022/10/08 02:47:10;;;;;;;4.38;1.52;;;;;;;13.90;100.00;101002.75;5087635;28;20059;-65
2022/10/08 02:49:40;;;;;;;7.63;2.13;;;;;;;13.88;100.00;101004.72;5105652;28;20073;-68
2022/10/08 02:52:09;;;;;;;5.25;2.13;;;;;;;13.87;100.00;101005.69;5106700;28;20118;-66
2022/10/08 02:54:37;;;;;;;5.25;2.08;;;;;;;13.91;100.00;101009.66;5104176;28;20031;-67
2022/10/08 02:57:14;;;;;;;4.63;1.98;;;;;;;13.94;100.00;101015.41;5105429;28;20470;-66
2022/10/08 02:59:41;;;;;;;3.30;1.92;;;;;;;13.93;100.00;101008.50;5109146;28;20035;-65
2022/10/08 03:02:09;;;;;;;3.25;1.77;;;;;;;13.89;100.00;101006.34;5081368;28;20071;-64
2022/10/08 03:04:40;;;;;;;4.00;1.52;;;;;;;13.85;100.00;101003.22;5108945;28;20139;-67
2022/10/08 03:07:06;;;;;;;4.07;1.58;;;;;;;13.82;100.00;101005.31;5104467;28;20038;-65
2022/10/08 03:09:37;;;;;;;2.80;1.08;;;;;;;13.84;100.00;101006.81;5106241;28;20503;-67
2022/10/08 03:12:03;;;;;;;3.65;1.42;;;;;;;13.90;100.00;101010.63;5106672;28;20444;-66
2022/10/08 03:14:34;;;;;;;1.75;1.10;;;;;;;13.96;100.00;101010.00;5107764;28;20038;-66
2022/10/08 03:16:59;;;;;;;10.07;1.60;;;;;;;13.99;100.00;101009.72;5086227;28;21340;-69
2022/10/08 03:19:26;;;;;;;8.02;1.50;;;;;;;13.97;100.00;101014.28;5106319;28;20480;-67
2022/10/08 03:21:55;;;;;;;4.40;1.40;;;;;;;13.95;100.00;101008.38;5105715;28;20474;-67
2022/10/08 03:24:20;;;;;;;3.53;1.45;;;;;;;13.95;100.00;101010.97;5423366;22;20126;-86
2022/10/08 03:26:46;;;;;;;3.53;1.98;;;;;;;13.92;100.00;101006.06;5064575;28;20048;-86
2022/10/08 03:29:11;;;;;;;2.75;1.35;;;;;;;13.93;100.00;101012.94;5065076;28;20032;-85
2022/10/08 03:31:37;;;;;;;3.45;1.50;;;;;;;13.96;100.00;101007.38;5065323;28;20029;-84
2022/10/08 03:34:03;;;;;;;5.40;1.63;;;;;;;13.95;100.00;101010.97;5064032;28;20568;-85
2022/10/08 03:36:29;;;;;;;4.95;1.38;;;;;;;13.88;100.00;101009.94;5066762;28;20032;-84
2022/10/08 03:38:54;;;;;;;4.05;1.13;;;;;;;13.86;100.00;101006.66;5063387;28;20040;-84
2022/10/08 03:41:20;;;;;;;6.10;1.27;;;;;;;13.86;100.00;101009.28;5067782;28;20363;-86
2022/10/08 03:43:46;;;;;;;3.03;1.52;;;;;;;13.93;100.00;101002.47;5065362;28;20062;-85
2022/10/08 03:46:13;;;;;;;3.63;1.45;;;;;;;13.93;100.00;101010.31;5067680;28;20024;-85
2022/10/08 03:48:39;;;;;;;2.90;1.30;;;;;;;13.89;100.00;101011.59;5065123;28;20024;-85
2022/10/08 03:51:15;;;;;;;4.10;1.27;;;;;;;13.90;100.00;101015.84;5061901;28;20031;-85
2022/10/08 03:53:41;;;;;;;1.90;1.45;;;;;;;13.86;100.00;101002.25;5063996;28;20276;-84
2022/10/08 03:56:12;;;;;;;2.65;1.35;;;;;;;13.90;100.00;101000.97;5067627;28;20033;-85
2022/10/08 03:58:37;;;;;;;4.05;1.42;;;;;;;13.88;100.00;101004.72;5064186;28;20445;-84
2022/10/08 04:01:09;;;;;;;2.13;1.33;;;;;;;13.87;100.00;101009.13;5065983;28;20037;-85
2022/10/08 04:03:35;;;;;;;3.90;1.60;;;;;;;13.81;100.00;101011.53;5059668;28;20434;-85
2022/10/08 04:06:01;;;;;;;4.25;1.20;;;;;;;13.82;100.00;101007.94;5066487;28;20028;-85
2022/10/08 04:08:27;;;;;;;2.90;1.10;;;;;;;13.79;100.00;101008.25;5064014;28;20025;-85
2022/10/08 04:10:52;;;;;;;2.95;1.38;;;;;;;13.76;100.00;101003.31;5064858;28;20124;-85
2022/10/08 04:13:18;;;;;;;1.85;1.20;;;;;;;13.74;100.00;101006.06;5064658;28;20120;-85
2022/10/08 04:15:49;;;;;;;2.03;0.93;;;;;;;13.79;100.00;101005.63;5066001;28;20568;-85
2022/10/08 04:18:15;;;;;;;1.75;1.02;;;;;;;13.79;100.00;101008.25;5061064;28;20487;-86
2022/10/08 04:20:41;;;;;;;3.70;1.05;;;;;;;13.75;100.00;101005.09;5062527;28;20364;-84
2022/10/08 04:23:07;;;;;;;2.78;1.15;;;;;;;13.74;100.00;101003.44;5057518;28;20466;-85
2022/10/08 04:25:35;;;;;;;3.05;1.08;;;;;;;13.72;100.00;101000.16;5063368;28;20504;-86
2022/10/08 04:28:01;;;;;;;2.03;1.40;;;;;;;13.74;100.00;101003.44;5066347;28;20040;-85
2022/10/08 04:30:28;;;;;;;3.90;1.10;;;;;;;13.72;100.00;101012.44;5053584;28;20101;-84
2022/10/08 04:32:54;;;;;;;2.22;1.30;;;;;;;13.72;100.00;101001.97;5064427;28;20036;-85
2022/10/08 04:35:20;;;;;;;3.47;1.27;;;;;;;13.66;100.00;100995.56;5065552;28;20131;-84
2022/10/08 04:37:45;;;;;;;3.35;1.40;;;;;;;13.67;100.00;100996.38;5064463;28;20427;-85
2022/10/08 04:40:11;;;;;;;4.88;1.20;;;;;;;13.64;100.00;100991.44;5063632;28;20498;-83
2022/10/08 04:42:36;;;;;;;2.25;1.42;;;;;;;13.63;100.00;100992.41;5069614;28;20445;-84
2022/10/08 04:45:01;;;;;;;2.05;1.17;;;;;;;13.60;100.00;100991.75;5068246;28;20434;-84
2022/10/08 04:47:27;;;;;;;3.63;1.17;;;;;;;13.55;100.00;100993.16;5070870;28;20486;-84
2022/10/08 04:49:52;;;;;;;5.00;1.65;;;;;;;13.48;100.00;100987.72;5064277;28;20149;-82
2022/10/08 04:52:19;;;;;;;3.55;1.20;;;;;;;13.51;100.00;100992.66;5067546;28;20046;-83
2022/10/08 04:54:45;;;;;;;2.90;1.17;;;;;;;13.58;100.00;100992.88;5067415;28;20016;-84
2022/10/08 04:57:11;;;;;;;4.90;1.67;;;;;;;13.54;100.00;100992.34;5069122;28;20082;-86
2022/10/08 04:59:36;;;;;;;3.72;1.83;;;;;;;13.52;100.00;101003.94;5066818;28;20797;-85
2022/10/08 05:02:02;;;;;;;3.90;1.85;;;;;;;13.46;100.00;100997.50;5062135;28;20025;-85
2022/10/08 05:04:27;;;;;;;4.40;1.27;;;;;;;13.40;100.00;100990.25;5067258;28;20107;-84
2022/10/08 05:06:53;;;;;;;7.20;1.73;;;;;;;13.37;100.00;100992.34;5066670;28;20115;-85
2022/10/08 05:09:18;;;;;;;1.80;1.40;;;;;;;13.35;100.00;100996.91;5064426;28;20094;-83
2022/10/08 05:11:43;;;;;;;7.35;1.60;;;;;;;13.37;100.00;100995.78;5064163;28;20043;-83
2022/10/08 05:14:09;;;;;;;4.75;1.25;;;;;;;13.36;100.00;100991.53;5066496;28;20355;-83
2022/10/08 05:16:35;;;;;;;5.93;2.40;;;;;;;13.35;100.00;100995.09;5068757;28;20029;-83
2022/10/08 05:19:02;;;;;;;4.35;2.42;;;;;;;13.37;100.00;100995.78;5063070;28;20039;-82
2022/10/08 05:21:29;;;;;;;6.03;3.08;;;;;;;13.36;100.00;100994.13;5064426;28;20033;-82
2022/10/08 05:24:05;;;;;;;3.47;1.92;;;;;;;13.35;100.00;100997.72;5062556;28;20486;-83
2022/10/08 05:26:33;;;;;;;7.40;1.65;;;;;;;13.37;100.00;101000.19;5067201;28;20048;-84
2022/10/08 05:28:59;;;;;;;3.58;1.38;;;;;;;13.38;100.00;101007.91;5067989;28;20064;-84
2022/10/08 05:31:27;;;;;;;6.55;1.75;;;;;;;13.38;100.00;101013.13;5068151;28;20094;-84
2022/10/08 05:33:52;;;;;;;4.05;1.20;;;;;;;13.36;100.00;101007.22;5067081;28;20039;-83
2022/10/08 05:36:30;;;;;;;3.92;1.63;;;;;;;13.32;100.00;101008.50;5066934;28;20024;-83
2022/10/08 05:38:58;;;;;;;6.85;1.88;;;;;;;13.29;100.00;101014.03;5064836;28;20032;-82
2022/10/08 05:41:26;;;;;;;2.78;1.40;;;;;;;13.26;100.00;101004.66;5063154;28;20431;-84
2022/10/08 05:43:54;;;;;;;2.00;1.25;;;;;;;13.29;100.00;101009.59;5065646;28;20056;-84
2022/10/08 05:46:21;;;;;;;5.07;1.45;;;;;;;13.32;100.00;101013.72;5068334;28;20024;-83
2022/10/08 05:48:47;;;;;;;4.32;1.25;;;;;;;13.38;100.00;101007.06;5065402;28;20036;-83
2022/10/08 05:51:16;;;;;;;2.78;1.33;;;;;;;13.42;100.00;100996.16;5065565;28;20447;-83
2022/10/08 05:53:45;;;;;;;4.25;1.50;;;;;;;13.45;100.00;101001.09;5066604;28;20116;-83
2022/10/08 05:56:13;;;;;;;4.20;1.63;;;;;;;13.48;100.00;101008.66;5058199;28;20081;-85
2022/10/08 05:58:39;;;;;;;2.45;1.65;;;;;;;13.52;100.00;101003.94;5069557;28;20023;-83
2022/10/08 06:01:07;;;;;;;5.05;1.40;;;;;;;13.58;100.00;101014.63;5062640;28;20028;-84
2022/10/08 06:03:33;;;;;;;6.75;1.75;;;;;;;13.64;100.00;101013.22;5069257;28;20074;-83
2022/10/08 06:06:05;;;;;;;2.92;1.25;;;;;;;13.72;100.00;101021.09;5069389;28;20028;-82
2022/10/08 06:08:32;;;;;;;3.92;1.70;;;;;;;13.71;100.00;101024.69;5069305;28;20410;-83
2022/10/08 06:10:58;;;;;;;3.20;1.63;;;;;;;13.73;100.00;101024.56;5067683;28;20043;-84
2022/10/08 06:13:23;;;;;;;4.93;1.35;;;;;;;13.74;100.00;101021.78;5069269;28;20455;-83
2022/10/08 06:15:55;;;;;;;4.60;1.35;;;;;;;13.81;100.00;101030.69;5067874;28;20035;-83
2022/10/08 06:18:21;;;;;;;5.40;1.38;;;;;;;13.88;100.00;101031.72;5067782;28;20035;-83
2022/10/08 06:20:47;;;;;;;2.22;1.20;;;;;;;13.97;100.00;101024.75;5069479;28;20396;-83
2022/10/08 06:23:12;;;;;;;2.58;0.80;;;;;;;14.06;100.00;101033.50;5068937;28;20056;-83
2022/10/08 06:25:37;;;;;;;2.45;0.93;;;;;;;14.12;100.00;101033.72;5066479;28;20036;-83
2022/10/08 06:28:03;;;;;;;4.15;1.20;;;;;;;14.19;100.00;101034.72;5067798;28;20029;-83
2022/10/08 06:30:28;;;;;;;2.03;1.20;;;;;;;14.19;100.00;101047.81;5068986;28;20030;-83
2022/10/08 06:32:54;;;;;;;2.63;1.52;;;;;;;14.24;100.00;101042.94;5069096;28;20047;-83
2022/10/08 06:35:19;;;;;;;2.67;1.30;;;;;;;14.33;100.00;101046.44;5067649;28;20429;-83
2022/10/08 06:37:48;;;;;;;1.13;0.85;;;;;;;14.39;100.00;101053.69;5067308;28;20021;-83
2022/10/08 06:40:13;;;;;;;3.97;0.98;;;;;;;14.42;100.00;101047.34;5068067;28;20107;-83
2022/10/08 06:42:39;;;;;;;2.70;0.90;;;;;;;14.47;100.00;101052.94;5066958;28;20120;-83
2022/10/08 06:45:05;;;;;;;1.80;1.15;;;;;;;14.48;100.00;101051.97;5068524;28;20063;-82
2022/10/08 06:47:30;;;;;;;6.75;2.00;;;;;;;14.54;100.00;101051.34;5065366;28;20141;-82
2022/10/08 06:49:56;;;;;;;1.00;0.70;;;;;;;14.56;100.00;101055.47;5068562;28;20032;-82
2022/10/08 06:52:21;;;;;;;1.83;1.02;;;;;;;14.57;100.00;101058.91;5068374;28;20023;-82
2022/10/08 06:54:47;;;;;;;5.35;1.10;;;;;;;14.59;100.00;101060.41;5068534;28;20031;-83
2022/10/08 06:57:12;;;;;;;1.90;1.08;;;;;;;14.53;100.00;101058.41;5066254;28;20032;-83
2022/10/08 06:59:37;;;;;;;2.45;0.77;;;;;;;14.51;100.00;101062.16;5066349;28;20412;-83
2022/10/08 07:02:03;;;;;;;2.15;1.20;;;;;;;14.48;100.00;101051.97;5067990;28;20043;-83
2022/10/08 07:04:28;;;;;;;1.98;1.17;;;;;;;14.49;100.00;101051.81;5068158;28;20442;-83
2022/10/08 07:06:54;;;;;;;3.38;0.95;;;;;;;14.45;100.00;101063.59;5063601;28;20082;-83
2022/10/08 07:09:19;;;;;;;4.70;0.82;;;;;;;14.40;100.00;101062.38;5067978;28;20074;-83
2022/10/08 07:11:44;;;;;;;5.55;1.10;;;;;;;14.38;100.00;101069.56;5065321;28;20414;-84
2022/10/08 07:14:10;;;;;;;1.83;1.00;;;;;;;14.37;100.00;101078.41;5068082;28;20035;-84
2022/10/08 07:16:35;;;;;;;6.55;1.02;;;;;;;14.41;100.00;101074.50;5065802;28;20020;-83
2022/10/08 07:19:01;;;;;;;2.55;1.15;;;;;;;14.52;100.00;101076.91;5066215;28;20833;-83
2022/10/08 07:21:28;;;;;;;5.72;1.10;;;;;;;14.63;100.00;101076.66;5068018;28;20404;-83
2022/10/08 07:23:55;;;;;;;3.17;0.98;;;;;;;14.67;100.00;101077.94;5067752;28;20089;-82
2022/10/08 07:26:25;;;;;;;2.65;0.90;;;;;;;14.75;100.00;101085.03;5065523;28;20040;-84
2022/10/08 07:28:53;;;;;;;2.83;1.35;;;;;;;14.79;100.00;101083.75;5068128;28;20060;-84
2022/10/08 07:31:22;;;;;;;3.97;1.17;;;;;;;14.85;100.00;101081.31;5068272;28;20490;-83
2022/10/08 07:33:47;;;;;;;10.10;1.77;;;;;;;14.89;100.00;101085.28;5067742;28;20029;-84
2022/10/08 07:36:18;;;;;;;4.05;1.50;;;;;;;14.97;100.00;101086.28;5066935;28;20070;-84
2022/10/08 07:38:44;;;;;;;3.58;1.45;;;;;;;15.08;100.00;101083.41;5065557;28;20108;-83
2022/10/08 07:41:11;;;;;;;2.97;0.80;;;;;;;15.15;100.00;101087.00;5066848;28;20100;-84
2022/10/08 07:43:40;;;;;;;3.13;0.90;;;;;;;15.09;100.00;101085.88;5067706;28;20469;-83
2022/10/08 07:46:06;;;;;;;5.50;1.10;;;;;;;15.08;100.00;101088.66;5067893;28;20023;-83
2022/10/08 07:48:32;;;;;;;4.72;1.27;;;;;;;15.09;100.00;101090.28;5066038;28;20025;-83
2022/10/08 07:51:18;;;;;;;3.28;0.77;;;;;;;15.17;100.00;101091.09;5065445;28;20340;-83
2022/10/08 07:53:44;;;;;;;1.38;0.90;;;;;;;15.27;100.00;101088.34;5067626;28;20029;-82
2022/10/08 07:56:12;;;;;;;2.42;0.90;;;;;;;15.40;100.00;101088.72;5067830;28;20027;-83
2022/10/08 07:58:37;;;;;;;3.45;0.95;;;;;;;15.44;100.00;101090.06;5063089;28;20571;-83
2022/10/08 08:01:05;;;;;;;3.83;1.15;;;;;;;15.38;100.00;101085.44;5066448;28;20055;-83
2022/10/08 08:03:31;;;;;;;4.53;1.00;;;;;;;15.36;100.00;101087.41;5067389;28;20151;-84
2022/10/08 08:06:11;;;;;;;2.22;0.88;;;;;;;15.43;100.00;101091.03;5067873;28;20484;-83
2022/10/08 08:08:39;;;;;;;4.30;1.52;;;;;;;15.57;100.00;101090.44;5065025;28;20043;-83
2022/10/08 08:11:07;;;;;;;3.22;0.90;;;;;;;15.79;100.00;101093.41;5066030;28;20028;-83
2022/10/08 08:13:35;;;;;;;3.63;0.70;;;;;;;15.95;100.00;101095.22;5067135;28;20209;-84
2022/10/08 08:16:03;;;;;;;2.22;0.98;;;;;;;16.06;100.00;101094.91;5071278;28;20028;-83
2022/10/08 08:18:30;;;;;;;5.35;1.75;;;;;;;16.21;100.00;101091.44;5068684;28;20051;-83
2022/10/08 08:21:23;;;;;;;3.38;1.00;;;;;;;16.33;100.00;101091.91;5070285;28;20052;-84
2022/10/08 08:23:51;;;;;;;2.70;1.10;;;;;;;16.39;100.00;101095.69;5068949;28;20115;-84
2022/10/08 08:26:18;;;;;;;3.15;1.02;;;;;;;16.51;100.00;101089.09;5070900;28;20200;-84
2022/10/08 08:28:44;;;;;;;2.20;0.80;;;;;;;16.87;100.00;101095.59;5068909;28;20043;-84
2022/10/08 08:31:13;;;;;;;4.78;0.93;;;;;;;16.94;100.00;101094.91;5068326;28;20029;-84
2022/10/08 08:33:40;;;;;;;2.67;1.05;;;;;;;16.97;100.00;101089.31;5068910;28;20098;-84
2022/10/08 08:36:07;;;;;;;4.95;0.80;;;;;;;17.00;100.00;101091.59;5071636;28;20025;-83
2022/10/08 08:38:36;;;;;;;2.65;1.20;;;;;;;17.10;100.00;101087.72;5069531;28;20455;-83
2022/10/08 08:41:31;;;;;;;5.68;0.80;;;;;;;17.21;97.60;101083.91;5071070;28;20025;-84
2022/10/08 08:44:02;;;;;;;2.28;0.82;;;;;;;17.24;99.88;101081.75;5069898;28;20036;-84
2022/10/08 08:46:32;;;;;;;4.45;0.82;;;;;;;17.23;99.93;101090.66;5071095;28;20069;-83
2022/10/08 08:49:04;;;;;;;1.77;0.88;;;;;;;17.35;99.08;101085.81;5070720;28;20028;-84
2022/10/08 08:51:30;;;;;;;6.60;1.15;;;;;;;17.47;99.30;101081.78;5070687;28;20135;-84
2022/10/08 08:53:56;;;;;;;1.58;0.77;;;;;;;17.50;98.70;101080.59;5069358;28;20138;-84
2022/10/08 08:56:23;;;;;;;2.00;0.77;;;;;;;17.55;98.32;101083.53;5070808;28;20488;-84
2022/10/08 08:59:21;;;;;;;2.75;0.82;;;;;;;17.80;93.49;101078.94;5069992;28;20033;-84
2022/10/08 09:01:48;;;;;;;4.90;0.95;;;;;;;17.93;96.83;101079.19;5070791;28;20487;-84
2022/10/08 09:04:39;;;;;;;3.28;0.65;;;;;;;18.02;94.54;101074.63;5066478;28;20124;-84
2022/10/08 09:07:10;;;;;;;3.20;1.02;;;;;;;18.08;95.33;101072.09;5075185;28;20045;-84
2022/10/08 09:09:47;;;;;;;1.60;0.73;;;;;;;18.06;95.40;101070.63;5051453;28;20128;-83
2022/10/08 09:12:22;;;;;;;2.50;1.00;;;;;;;17.98;95.76;101075.97;5050365;28;20079;-84
2022/10/08 09:14:56;;;;;;;2.60;0.85;;;;;;;17.95;95.75;101077.19;5068241;28;20036;-84
2022/10/08 09:17:35;;;;;;;4.47;0.70;;;;;;;17.86;96.82;101080.88;5067788;28;20406;-84
2022/10/08 09:20:01;;;;;;;6.03;0.80;;;;;;;17.83;98.67;101078.59;5071130;28;20120;-85
2022/10/08 09:22:38;;;;;;;3.25;0.80;;;;;;;17.86;98.85;101079.06;5071774;28;21087;-84
2022/10/08 09:25:14;;;;;;;2.42;0.73;;;;;;;17.85;97.84;101066.88;5069473;28;20051;-84
2022/10/08 09:27:57;;;;;;;9.20;0.98;;;;;;;18.06;96.63;101068.00;5067598;28;20064;-84
2022/10/08 09:30:28;;;;;;;3.88;1.10;;;;;;;18.19;97.65;101066.41;5065576;28;20033;-84
2022/10/08 09:32:57;;;;;;;8.80;1.80;;;;;;;18.34;97.54;101073.53;5070077;28;20036;-84
2022/10/08 09:35:23;;;;;;;2.10;0.88;;;;;;;18.43;97.80;101061.88;5069918;28;20599;-84
2022/10/08 09:37:50;;;;;;;3.63;0.85;;;;;;;18.41;99.17;101067.34;5068445;28;20446;-83
2022/10/08 09:40:20;;;;;;;4.78;1.00;;;;;;;18.43;99.45;101064.53;5067179;28;20029;-84
2022/10/08 09:43:09;;;;;;;3.15;1.00;;;;;;;18.53;100.00;101063.22;5066738;28;20036;-84
2022/10/08 09:45:39;;;;;;;2.53;1.00;;;;;;;18.69;100.00;101062.28;5069861;28;20383;-84
2022/10/08 09:48:15;;;;;;;2.15;0.73;;;;;;;18.87;99.30;101069.81;5070207;28;20029;-84
2022/10/08 09:50:52;;;;;;;4.90;0.85;;;;;;;18.98;97.96;101068.50;5067229;28;20029;-84
2022/10/08 09:53:18;;;;;;;4.93;0.90;;;;;;;18.97;98.48;101080.06;5070014;28;20029;-84
2022/10/08 09:56:02;;;;;;;1.00;0.70;;;;;;;18.85;97.63;101077.09;5069551;28;20082;-84
2022/10/08 09:58:31;;;;;;;4.55;1.27;;;;;;;18.74;100.00;101077.56;5068586;28;20036;-84
2022/10/08 10:01:14;;;;;;;2.42;1.20;;;;;;;18.63;100.00;101078.84;5067996;28;20032;-84
2022/10/08 10:03:47;;;;;;;5.07;1.20;;;;;;;18.55;100.00;101081.53;5069613;28;20048;-84
2022/10/08 10:06:13;;;;;;;3.65;1.65;;;;;;;18.57;100.00;101079.53;5069219;28;20476;-84
2022/10/08 10:08:48;;;;;;;6.03;2.50;;;;;;;18.59;100.00;101069.59;5066685;28;20040;-84
2022/10/08 10:11:32;;;;;;;3.28;2.13;;;;;;;18.63;100.00;101073.56;5068398;28;20032;-84
2022/10/08 10:14:05;;;;;;;3.15;1.88;;;;;;;18.73;100.00;101068.81;5068172;28;20106;-84
2022/10/08 10:16:37;;;;;;;5.05;1.80;;;;;;;18.77;100.00;101075.38;5068950;28;20040;-84
2022/10/08 10:19:14;;;;;;;4.43;1.70;;;;;;;18.77;100.00;101066.63;5068238;28;20399;-83
2022/10/08 10:21:51;;;;;;;5.50;1.95;;;;;;;18.74;100.00;101065.19;5067670;28;20627;-84
2022/10/08 10:24:35;;;;;;;2.88;1.27;;;;;;;18.80;98.51;101063.63;5067661;28;20029;-84
2022/10/08 10:27:09;;;;;;;2.75;1.20;;;;;;;18.74;97.99;101065.19;5068873;28;20550;-84
2022/10/08 10:30:19;;;;;;;2.80;1.13;;;;;;;18.66;96.14;101067.91;5067416;28;20480;-84
2022/10/08 10:33:02;;;;;;;3.25;0.90;;;;;;;18.77;97.31;101053.44;5039749;28;20492;-84
2022/10/08 10:35:29;;;;;;;2.25;1.48;;;;;;;18.88;97.08;101048.50;5068507;28;20507;-84
2022/10/08 10:38:15;;;;;;;5.03;1.10;;;;;;;18.96;97.73;101044.09;5064695;28;20029;-84
2022/10/08 10:40:49;;;;;;;4.97;1.30;;;;;;;18.94;97.88;101035.56;5065977;28;20055;-84
2022/10/08 10:43:36;;;;;;;5.43;1.33;;;;;;;18.90;97.07;101040.41;5056937;28;20421;-84
2022/10/08 10:46:27;;;;;;;4.78;0.90;;;;;;;18.95;96.06;101029.25;5067879;28;20029;-84
2022/10/08 10:48:54;;;;;;;5.15;1.13;;;;;;;19.01;96.94;101026.72;5067522;28;20033;-84
2022/10/08 10:51:35;;;;;;;5.35;1.17;;;;;;;19.15;94.97;101020.56;5067311;28;20030;-84
2022/10/08 10:54:15;;;;;;;4.70;1.13;;;;;;;19.18;93.38;101019.38;5068508;28;20520;-84
2022/10/08 10:56:50;;;;;;;4.93;1.35;;;;;;;19.22;94.48;101010.09;5068435;28;20078;-84
2022/10/08 10:59:16;;;;;;;6.60;1.35;;;;;;;19.21;95.74;101014.53;5066924;28;20033;-84
2022/10/08 11:01:51;;;;;;;2.88;0.80;;;;;;;19.20;93.53;101009.44;5068213;28;20553;-84
2022/10/08 11:04:25;;;;;;;2.38;0.73;;;;;;;19.18;92.78;101011.47;5068292;28;20188;-84
2022/10/08 11:07:29;;;;;;;3.15;0.68;;;;;;;19.17;90.29;101004.53;5068232;28;20391;-84
2022/10/08 11:09:58;;;;;;;4.10;1.00;;;;;;;19.35;90.05;101002.28;5003869;28;20271;-84
2022/10/08 11:12:37;;;;;;;2.83;0.77;;;;;;;19.37;90.11;101007.38;4989289;28;20501;-84
2022/10/08 11:15:23;;;;;;;2.75;0.80;;;;;;;19.32;89.26;101007.13;5002097;28;20144;-84
2022/10/08 11:17:51;;;;;;;6.97;0.77;;;;;;;19.32;91.13;101000.03;5004788;28;20095;-84
2022/10/08 11:20:27;;;;;;;3.13;0.82;;;;;;;19.33;91.38;101000.84;5005625;28;20054;-84
2022/10/08 11:23:06;;;;;;;3.10;0.90;;;;;;;19.29;92.45;100999.59;5005857;28;20576;-84
2022/10/08 11:25:55;;;;;;;2.63;0.80;;;;;;;19.28;91.71;100988.19;5003109;28;20492;-84
2022/10/08 11:28:38;;;;;;;1.20;0.77;;;;;;;19.34;86.93;100991.91;4988288;28;20042;-84
2022/10/08 11:31:32;;;;;;;3.05;0.60;;;;;;;19.60;88.76;100989.53;5005318;28;20478;-84
2022/10/08 11:33:58;;;;;;;5.75;0.70;;;;;;;19.67;89.21;100985.09;4987129;28;20057;-83
2022/10/08 11:37:01;;;;;;;3.92;0.82;;;;;;;19.65;88.60;100983.66;5004055;28;20033;-84